sensor_id;sensor_type;location;lat;lon;timestamp;P1;durP1;ratioP1;P2;durP2;ratioP2
7377;SDS011;3730;50.856;12.776;2023-02-23T00:01:00;10.37;;;8.90;;
7377;SDS011;3730;50.856;12.776;2023-02-23T00:03:37;8.97;;;8.07;;
7377;SDS011;3730;50.856;12.776;2023-02-23T00:06:04;9.17;;;8.10;;
7377;SDS011;3730;50.856;12.776;2023-02-23T00:08:31;10.43;;;8.33;;
7377;SDS011;3730;50.856;12.776;2023-02-23T00:10:59;11.43;;;8.70;;
7377;SDS011;3730;50.856;12.776;2023-02-23T00:13:25;10.37;;;8.93;;
7377;SDS011;3730;50.856;12.776;2023-02-23T00:15:52;9.47;;;7.97;;
7377;SDS011;3730;50.856;12.776;2023-02-23T00:18:19;10.00;;;7.47;;
7377;SDS011;3730;50.856;12.776;2023-02-23T00:20:53;10.27;;;8.57;;
7377;SDS011;3730;50.856;12.776;2023-02-23T00:23:21;9.17;;;7.33;;
7377;SDS011;3730;50.856;12.776;2023-02-23T00:25:47;9.67;;;7.93;;
7377;SDS011;3730;50.856;12.776;2023-02-23T00:28:13;8.73;;;7.83;;
7377;SDS011;3730;50.856;12.776;2023-02-23T00:30:38;9.53;;;7.90;;
7377;SDS011;3730;50.856;12.776;2023-02-23T00:33:04;9.47;;;8.23;;
7377;SDS011;3730;50.856;12.776;2023-02-23T00:35:31;10.13;;;8.17;;
7377;SDS011;3730;50.856;12.776;2023-02-23T00:37:57;10.73;;;7.63;;
7377;SDS011;3730;50.856;12.776;2023-02-23T00:40:22;11.60;;;7.77;;
7377;SDS011;3730;50.856;12.776;2023-02-23T00:42:49;9.27;;;7.83;;
7377;SDS011;3730;50.856;12.776;2023-02-23T00:45:16;9.27;;;7.80;;
7377;SDS011;3730;50.856;12.776;2023-02-23T00:47:44;8.97;;;7.13;;
7377;SDS011;3730;50.856;12.776;2023-02-23T00:50:13;8.30;;;7.20;;
7377;SDS011;3730;50.856;12.776;2023-02-23T00:52:40;7.53;;;6.73;;
7377;SDS011;3730;50.856;12.776;2023-02-23T00:55:08;8.03;;;6.77;;
7377;SDS011;3730;50.856;12.776;2023-02-23T00:57:35;7.30;;;6.60;;
7377;SDS011;3730;50.856;12.776;2023-02-23T01:00:02;6.47;;;5.80;;
7377;SDS011;3730;50.856;12.776;2023-02-23T01:02:37;7.67;;;6.70;;
7377;SDS011;3730;50.856;12.776;2023-02-23T01:05:03;8.07;;;6.83;;
7377;SDS011;3730;50.856;12.776;2023-02-23T01:07:29;9.60;;;7.87;;
7377;SDS011;3730;50.856;12.776;2023-02-23T01:09:55;12.13;;;9.37;;
7377;SDS011;3730;50.856;12.776;2023-02-23T01:12:20;12.47;;;9.90;;
7377;SDS011;3730;50.856;12.776;2023-02-23T01:14:46;11.77;;;9.67;;
7377;SDS011;3730;50.856;12.776;2023-02-23T01:17:12;12.90;;;10.53;;
7377;SDS011;3730;50.856;12.776;2023-02-23T01:19:38;12.83;;;9.77;;
7377;SDS011;3730;50.856;12.776;2023-02-23T01:22:03;10.33;;;9.00;;
7377;SDS011;3730;50.856;12.776;2023-02-23T01:24:29;10.93;;;9.17;;
7377;SDS011;3730;50.856;12.776;2023-02-23T01:26:55;11.83;;;9.07;;
7377;SDS011;3730;50.856;12.776;2023-02-23T01:29:20;10.23;;;8.90;;
7377;SDS011;3730;50.856;12.776;2023-02-23T01:31:47;12.63;;;9.37;;
7377;SDS011;3730;50.856;12.776;2023-02-23T01:34:15;8.80;;;7.70;;
7377;SDS011;3730;50.856;12.776;2023-02-23T01:36:41;10.53;;;8.37;;
7377;SDS011;3730;50.856;12.776;2023-02-23T01:39:16;12.60;;;8.73;;
7377;SDS011;3730;50.856;12.776;2023-02-23T01:41:43;12.13;;;8.87;;
7377;SDS011;3730;50.856;12.776;2023-02-23T01:46:38;11.03;;;9.33;;
7377;SDS011;3730;50.856;12.776;2023-02-23T01:49:10;10.33;;;9.23;;
7377;SDS011;3730;50.856;12.776;2023-02-23T01:51:51;10.63;;;8.77;;
7377;SDS011;3730;50.856;12.776;2023-02-23T01:54:29;11.47;;;8.73;;
7377;SDS011;3730;50.856;12.776;2023-02-23T01:57:00;11.07;;;8.87;;
7377;SDS011;3730;50.856;12.776;2023-02-23T01:59:36;12.63;;;9.77;;
7377;SDS011;3730;50.856;12.776;2023-02-23T02:02:05;12.27;;;9.50;;
7377;SDS011;3730;50.856;12.776;2023-02-23T02:04:33;12.53;;;10.40;;
7377;SDS011;3730;50.856;12.776;2023-02-23T02:07:17;14.57;;;10.90;;
7377;SDS011;3730;50.856;12.776;2023-02-23T02:09:47;11.90;;;10.10;;
7377;SDS011;3730;50.856;12.776;2023-02-23T02:12:33;13.13;;;10.53;;
7377;SDS011;3730;50.856;12.776;2023-02-23T02:14:59;12.87;;;10.43;;
7377;SDS011;3730;50.856;12.776;2023-02-23T02:20:22;13.50;;;10.47;;
7377;SDS011;3730;50.856;12.776;2023-02-23T02:34:24;12.57;;;9.47;;
7377;SDS011;3730;50.856;12.776;2023-02-23T02:40:30;10.90;;;9.60;;
7377;SDS011;3730;50.856;12.776;2023-02-23T02:45:50;10.97;;;9.00;;
7377;SDS011;3730;50.856;12.776;2023-02-23T02:48:42;12.43;;;9.37;;
7377;SDS011;3730;50.856;12.776;2023-02-23T02:51:41;13.40;;;9.60;;
7377;SDS011;3730;50.856;12.776;2023-02-23T02:54:15;11.17;;;9.30;;
7377;SDS011;3730;50.856;12.776;2023-02-23T02:56:52;11.07;;;8.93;;
7377;SDS011;3730;50.856;12.776;2023-02-23T02:59:21;12.00;;;9.40;;
7377;SDS011;3730;50.856;12.776;2023-02-23T03:02:08;12.07;;;9.10;;
7377;SDS011;3730;50.856;12.776;2023-02-23T03:04:57;11.27;;;9.00;;
7377;SDS011;3730;50.856;12.776;2023-02-23T03:07:52;12.67;;;9.00;;
7377;SDS011;3730;50.856;12.776;2023-02-23T03:11:10;12.40;;;10.03;;
7377;SDS011;3730;50.856;12.776;2023-02-23T03:19:57;12.97;;;10.60;;
7377;SDS011;3730;50.856;12.776;2023-02-23T03:23:04;11.57;;;10.33;;
7377;SDS011;3730;50.856;12.776;2023-02-23T03:26:14;14.17;;;10.87;;
7377;SDS011;3730;50.856;12.776;2023-02-23T03:31:59;14.93;;;11.07;;
7377;SDS011;3730;50.856;12.776;2023-02-23T03:37:38;13.90;;;11.23;;
7377;SDS011;3730;50.856;12.776;2023-02-23T03:40:27;16.63;;;11.73;;
7377;SDS011;3730;50.856;12.776;2023-02-23T03:43:15;17.23;;;11.90;;
7377;SDS011;3730;50.856;12.776;2023-02-23T03:46:01;13.83;;;10.87;;
7377;SDS011;3730;50.856;12.776;2023-02-23T03:48:46;15.07;;;11.97;;
7377;SDS011;3730;50.856;12.776;2023-02-23T03:51:32;16.73;;;11.07;;
7377;SDS011;3730;50.856;12.776;2023-02-23T03:54:35;13.33;;;10.10;;
7377;SDS011;3730;50.856;12.776;2023-02-23T03:57:23;13.53;;;10.80;;
7377;SDS011;3730;50.856;12.776;2023-02-23T04:00:09;12.97;;;10.70;;
7377;SDS011;3730;50.856;12.776;2023-02-23T04:02:56;13.37;;;10.70;;
7377;SDS011;3730;50.856;12.776;2023-02-23T04:05:42;16.03;;;11.70;;
7377;SDS011;3730;50.856;12.776;2023-02-23T04:08:29;15.43;;;12.40;;
7377;SDS011;3730;50.856;12.776;2023-02-23T04:11:18;13.30;;;10.87;;
7377;SDS011;3730;50.856;12.776;2023-02-23T04:14:06;13.83;;;10.80;;
7377;SDS011;3730;50.856;12.776;2023-02-23T04:16:34;16.53;;;11.33;;
7377;SDS011;3730;50.856;12.776;2023-02-23T04:19:00;15.37;;;12.67;;
7377;SDS011;3730;50.856;12.776;2023-02-23T04:21:26;19.07;;;14.73;;
7377;SDS011;3730;50.856;12.776;2023-02-23T04:23:52;17.40;;;13.37;;
7377;SDS011;3730;50.856;12.776;2023-02-23T04:26:18;16.03;;;12.63;;
7377;SDS011;3730;50.856;12.776;2023-02-23T04:28:44;13.83;;;11.37;;
7377;SDS011;3730;50.856;12.776;2023-02-23T04:31:10;13.80;;;11.57;;
7377;SDS011;3730;50.856;12.776;2023-02-23T04:33:36;15.87;;;12.23;;
7377;SDS011;3730;50.856;12.776;2023-02-23T04:36:03;12.60;;;10.70;;
7377;SDS011;3730;50.856;12.776;2023-02-23T04:38:29;15.63;;;11.10;;
7377;SDS011;3730;50.856;12.776;2023-02-23T04:40:55;14.30;;;11.47;;
7377;SDS011;3730;50.856;12.776;2023-02-23T04:43:21;13.33;;;10.87;;
7377;SDS011;3730;50.856;12.776;2023-02-23T04:45:47;13.20;;;11.13;;
7377;SDS011;3730;50.856;12.776;2023-02-23T04:48:13;14.50;;;11.53;;
7377;SDS011;3730;50.856;12.776;2023-02-23T04:50:39;12.80;;;11.33;;
7377;SDS011;3730;50.856;12.776;2023-02-23T04:53:05;12.33;;;11.03;;
7377;SDS011;3730;50.856;12.776;2023-02-23T04:55:31;13.10;;;10.87;;
7377;SDS011;3730;50.856;12.776;2023-02-23T04:57:57;12.50;;;10.80;;
7377;SDS011;3730;50.856;12.776;2023-02-23T05:00:24;14.27;;;10.60;;
7377;SDS011;3730;50.856;12.776;2023-02-23T05:02:51;11.27;;;10.07;;
7377;SDS011;3730;50.856;12.776;2023-02-23T05:05:17;20.30;;;10.50;;
7377;SDS011;3730;50.856;12.776;2023-02-23T05:07:43;12.67;;;10.30;;
7377;SDS011;3730;50.856;12.776;2023-02-23T05:10:09;18.30;;;10.67;;
7377;SDS011;3730;50.856;12.776;2023-02-23T05:12:35;14.23;;;10.37;;
7377;SDS011;3730;50.856;12.776;2023-02-23T05:15:01;11.90;;;10.10;;
7377;SDS011;3730;50.856;12.776;2023-02-23T05:17:27;13.57;;;10.07;;
7377;SDS011;3730;50.856;12.776;2023-02-23T05:19:53;14.07;;;11.13;;
7377;SDS011;3730;50.856;12.776;2023-02-23T05:22:20;16.37;;;11.10;;
7377;SDS011;3730;50.856;12.776;2023-02-23T05:24:46;12.37;;;10.43;;
7377;SDS011;3730;50.856;12.776;2023-02-23T05:27:12;11.63;;;10.37;;
7377;SDS011;3730;50.856;12.776;2023-02-23T05:29:39;12.87;;;10.40;;
7377;SDS011;3730;50.856;12.776;2023-02-23T05:32:05;13.70;;;10.93;;
7377;SDS011;3730;50.856;12.776;2023-02-23T05:34:31;15.17;;;10.67;;
7377;SDS011;3730;50.856;12.776;2023-02-23T05:36:57;17.37;;;13.27;;
7377;SDS011;3730;50.856;12.776;2023-02-23T05:39:24;15.23;;;12.27;;
7377;SDS011;3730;50.856;12.776;2023-02-23T05:41:50;14.17;;;11.50;;
7377;SDS011;3730;50.856;12.776;2023-02-23T05:44:16;12.93;;;10.67;;
7377;SDS011;3730;50.856;12.776;2023-02-23T05:46:44;14.57;;;11.30;;
7377;SDS011;3730;50.856;12.776;2023-02-23T05:49:10;17.57;;;11.37;;
7377;SDS011;3730;50.856;12.776;2023-02-23T05:51:36;12.40;;;10.60;;
7377;SDS011;3730;50.856;12.776;2023-02-23T05:54:03;14.80;;;11.47;;
7377;SDS011;3730;50.856;12.776;2023-02-23T05:56:30;13.03;;;11.40;;
7377;SDS011;3730;50.856;12.776;2023-02-23T05:58:56;12.40;;;10.60;;
7377;SDS011;3730;50.856;12.776;2023-02-23T06:01:23;13.90;;;11.30;;
7377;SDS011;3730;50.856;12.776;2023-02-23T06:03:49;14.10;;;10.97;;
7377;SDS011;3730;50.856;12.776;2023-02-23T06:06:16;10.83;;;9.73;;
7377;SDS011;3730;50.856;12.776;2023-02-23T06:08:42;11.70;;;9.00;;
7377;SDS011;3730;50.856;12.776;2023-02-23T06:11:08;15.27;;;10.23;;
7377;SDS011;3730;50.856;12.776;2023-02-23T06:13:34;13.97;;;9.93;;
7377;SDS011;3730;50.856;12.776;2023-02-23T06:16:00;12.60;;;9.60;;
7377;SDS011;3730;50.856;12.776;2023-02-23T06:18:27;10.13;;;8.40;;
7377;SDS011;3730;50.856;12.776;2023-02-23T06:20:53;11.17;;;8.90;;
7377;SDS011;3730;50.856;12.776;2023-02-23T06:23:19;11.00;;;9.03;;
7377;SDS011;3730;50.856;12.776;2023-02-23T06:25:45;12.00;;;8.80;;
7377;SDS011;3730;50.856;12.776;2023-02-23T06:28:12;13.03;;;9.87;;
7377;SDS011;3730;50.856;12.776;2023-02-23T06:30:39;11.20;;;9.30;;
7377;SDS011;3730;50.856;12.776;2023-02-23T06:33:05;10.87;;;9.23;;
7377;SDS011;3730;50.856;12.776;2023-02-23T06:35:31;12.80;;;9.50;;
7377;SDS011;3730;50.856;12.776;2023-02-23T06:37:58;13.17;;;9.60;;
7377;SDS011;3730;50.856;12.776;2023-02-23T06:40:24;11.77;;;9.43;;
7377;SDS011;3730;50.856;12.776;2023-02-23T06:42:50;14.23;;;10.20;;
7377;SDS011;3730;50.856;12.776;2023-02-23T06:45:16;13.97;;;10.43;;
7377;SDS011;3730;50.856;12.776;2023-02-23T06:47:43;12.10;;;10.40;;
7377;SDS011;3730;50.856;12.776;2023-02-23T06:50:09;12.17;;;9.83;;
7377;SDS011;3730;50.856;12.776;2023-02-23T06:52:35;12.73;;;10.40;;
7377;SDS011;3730;50.856;12.776;2023-02-23T06:55:01;13.07;;;9.63;;
7377;SDS011;3730;50.856;12.776;2023-02-23T06:57:27;12.73;;;10.67;;
7377;SDS011;3730;50.856;12.776;2023-02-23T06:59:53;16.83;;;11.47;;
7377;SDS011;3730;50.856;12.776;2023-02-23T07:02:19;17.37;;;11.37;;
7377;SDS011;3730;50.856;12.776;2023-02-23T07:04:45;17.53;;;12.70;;
7377;SDS011;3730;50.856;12.776;2023-02-23T07:07:12;16.43;;;11.13;;
7377;SDS011;3730;50.856;12.776;2023-02-23T07:09:39;16.60;;;11.10;;
7377;SDS011;3730;50.856;12.776;2023-02-23T07:12:05;12.80;;;11.00;;
7377;SDS011;3730;50.856;12.776;2023-02-23T07:14:31;13.70;;;11.43;;
7377;SDS011;3730;50.856;12.776;2023-02-23T07:16:57;14.33;;;11.77;;
7377;SDS011;3730;50.856;12.776;2023-02-23T07:19:24;13.80;;;11.67;;
7377;SDS011;3730;50.856;12.776;2023-02-23T07:21:50;13.90;;;11.53;;
7377;SDS011;3730;50.856;12.776;2023-02-23T07:24:16;12.43;;;10.00;;
7377;SDS011;3730;50.856;12.776;2023-02-23T07:26:42;13.93;;;10.30;;
7377;SDS011;3730;50.856;12.776;2023-02-23T07:29:11;18.67;;;10.80;;
7377;SDS011;3730;50.856;12.776;2023-02-23T07:31:37;13.77;;;10.60;;
7377;SDS011;3730;50.856;12.776;2023-02-23T07:34:03;12.07;;;9.93;;
7377;SDS011;3730;50.856;12.776;2023-02-23T07:36:29;15.57;;;9.60;;
7377;SDS011;3730;50.856;12.776;2023-02-23T07:38:55;11.33;;;9.90;;
7377;SDS011;3730;50.856;12.776;2023-02-23T07:41:21;12.87;;;9.63;;
7377;SDS011;3730;50.856;12.776;2023-02-23T07:43:47;11.20;;;9.50;;
7377;SDS011;3730;50.856;12.776;2023-02-23T07:46:13;12.33;;;9.03;;
7377;SDS011;3730;50.856;12.776;2023-02-23T07:48:41;14.33;;;9.50;;
7377;SDS011;3730;50.856;12.776;2023-02-23T07:51:12;10.63;;;8.87;;
7377;SDS011;3730;50.856;12.776;2023-02-23T07:53:39;10.47;;;8.70;;
7377;SDS011;3730;50.856;12.776;2023-02-23T07:56:06;11.53;;;8.47;;
7377;SDS011;3730;50.856;12.776;2023-02-23T07:58:34;10.97;;;9.23;;
7377;SDS011;3730;50.856;12.776;2023-02-23T08:01:01;10.87;;;8.80;;
7377;SDS011;3730;50.856;12.776;2023-02-23T08:03:27;12.20;;;9.47;;
7377;SDS011;3730;50.856;12.776;2023-02-23T08:05:53;10.47;;;9.33;;
7377;SDS011;3730;50.856;12.776;2023-02-23T08:08:20;11.93;;;9.20;;
7377;SDS011;3730;50.856;12.776;2023-02-23T08:10:46;11.40;;;9.27;;
7377;SDS011;3730;50.856;12.776;2023-02-23T08:13:12;13.40;;;8.37;;
7377;SDS011;3730;50.856;12.776;2023-02-23T08:15:39;19.40;;;9.73;;
7377;SDS011;3730;50.856;12.776;2023-02-23T08:18:05;14.93;;;9.47;;
7377;SDS011;3730;50.856;12.776;2023-02-23T08:20:31;9.63;;;8.20;;
7377;SDS011;3730;50.856;12.776;2023-02-23T08:22:57;9.67;;;8.20;;
7377;SDS011;3730;50.856;12.776;2023-02-23T08:25:24;13.63;;;8.90;;
7377;SDS011;3730;50.856;12.776;2023-02-23T08:27:52;16.23;;;8.73;;
7377;SDS011;3730;50.856;12.776;2023-02-23T08:30:21;12.77;;;9.87;;
7377;SDS011;3730;50.856;12.776;2023-02-23T08:32:48;14.50;;;10.43;;
7377;SDS011;3730;50.856;12.776;2023-02-23T08:35:14;13.33;;;9.70;;
7377;SDS011;3730;50.856;12.776;2023-02-23T08:37:41;13.07;;;9.60;;
7377;SDS011;3730;50.856;12.776;2023-02-23T08:40:07;13.67;;;9.77;;
7377;SDS011;3730;50.856;12.776;2023-02-23T08:42:33;10.43;;;8.80;;
7377;SDS011;3730;50.856;12.776;2023-02-23T08:44:59;15.43;;;10.33;;
7377;SDS011;3730;50.856;12.776;2023-02-23T08:47:26;10.50;;;9.40;;
7377;SDS011;3730;50.856;12.776;2023-02-23T08:49:53;13.63;;;10.30;;
7377;SDS011;3730;50.856;12.776;2023-02-23T08:52:19;11.67;;;10.30;;
7377;SDS011;3730;50.856;12.776;2023-02-23T08:54:46;12.97;;;10.53;;
7377;SDS011;3730;50.856;12.776;2023-02-23T08:57:12;14.90;;;11.23;;
7377;SDS011;3730;50.856;12.776;2023-02-23T08:59:38;14.63;;;10.93;;
7377;SDS011;3730;50.856;12.776;2023-02-23T09:02:05;20.40;;;10.63;;
7377;SDS011;3730;50.856;12.776;2023-02-23T09:04:32;13.70;;;11.30;;
7377;SDS011;3730;50.856;12.776;2023-02-23T09:07:02;15.63;;;11.63;;
7377;SDS011;3730;50.856;12.776;2023-02-23T09:09:28;13.30;;;10.67;;
7377;SDS011;3730;50.856;12.776;2023-02-23T09:11:54;15.57;;;11.80;;
7377;SDS011;3730;50.856;12.776;2023-02-23T09:14:22;13.20;;;10.90;;
7377;SDS011;3730;50.856;12.776;2023-02-23T09:16:48;13.90;;;12.13;;
7377;SDS011;3730;50.856;12.776;2023-02-23T09:19:14;12.90;;;11.00;;
7377;SDS011;3730;50.856;12.776;2023-02-23T09:21:40;16.00;;;11.60;;
7377;SDS011;3730;50.856;12.776;2023-02-23T09:24:07;14.17;;;11.47;;
7377;SDS011;3730;50.856;12.776;2023-02-23T09:26:33;12.60;;;11.30;;
7377;SDS011;3730;50.856;12.776;2023-02-23T09:29:04;14.13;;;11.77;;
7377;SDS011;3730;50.856;12.776;2023-02-23T09:31:31;12.87;;;11.17;;
7377;SDS011;3730;50.856;12.776;2023-02-23T09:33:57;14.87;;;10.87;;
7377;SDS011;3730;50.856;12.776;2023-02-23T09:36:26;14.47;;;10.80;;
7377;SDS011;3730;50.856;12.776;2023-02-23T09:38:53;14.63;;;11.17;;
7377;SDS011;3730;50.856;12.776;2023-02-23T09:43:53;15.07;;;11.00;;
7377;SDS011;3730;50.856;12.776;2023-02-23T09:49:14;14.23;;;11.13;;
7377;SDS011;3730;50.856;12.776;2023-02-23T09:51:45;17.60;;;12.87;;
7377;SDS011;3730;50.856;12.776;2023-02-23T09:54:17;14.20;;;11.80;;
7377;SDS011;3730;50.856;12.776;2023-02-23T09:56:48;14.00;;;11.30;;
7377;SDS011;3730;50.856;12.776;2023-02-23T09:59:16;14.00;;;11.90;;
7377;SDS011;3730;50.856;12.776;2023-02-23T10:01:59;20.57;;;12.10;;
7377;SDS011;3730;50.856;12.776;2023-02-23T10:04:35;15.67;;;11.90;;
7377;SDS011;3730;50.856;12.776;2023-02-23T10:23:00;13.33;;;11.40;;
7377;SDS011;3730;50.856;12.776;2023-02-23T10:25:39;16.33;;;12.60;;
7377;SDS011;3730;50.856;12.776;2023-02-23T10:28:11;14.63;;;11.87;;
7377;SDS011;3730;50.856;12.776;2023-02-23T10:30:43;16.87;;;12.97;;
7377;SDS011;3730;50.856;12.776;2023-02-23T10:33:15;17.50;;;13.17;;
7377;SDS011;3730;50.856;12.776;2023-02-23T10:35:56;18.37;;;13.53;;
7377;SDS011;3730;50.856;12.776;2023-02-23T10:38:29;19.50;;;13.13;;
7377;SDS011;3730;50.856;12.776;2023-02-23T10:40:55;15.27;;;13.20;;
7377;SDS011;3730;50.856;12.776;2023-02-23T10:43:21;19.83;;;12.77;;
7377;SDS011;3730;50.856;12.776;2023-02-23T10:45:50;18.47;;;13.93;;
7377;SDS011;3730;50.856;12.776;2023-02-23T10:48:20;17.77;;;13.63;;
7377;SDS011;3730;50.856;12.776;2023-02-23T10:50:49;23.93;;;15.60;;
7377;SDS011;3730;50.856;12.776;2023-02-23T10:53:21;18.47;;;13.87;;
7377;SDS011;3730;50.856;12.776;2023-02-23T10:56:04;21.90;;;16.07;;
7377;SDS011;3730;50.856;12.776;2023-02-23T10:58:54;20.60;;;15.23;;
7377;SDS011;3730;50.856;12.776;2023-02-23T11:02:03;18.37;;;14.07;;
7377;SDS011;3730;50.856;12.776;2023-02-23T11:04:15;18.43;;;15.23;;
7377;SDS011;3730;50.856;12.776;2023-02-23T11:06:43;19.87;;;14.43;;
7377;SDS011;3730;50.856;12.776;2023-02-23T11:14:25;20.70;;;16.23;;
7377;SDS011;3730;50.856;12.776;2023-02-23T11:16:55;23.97;;;16.63;;
7377;SDS011;3730;50.856;12.776;2023-02-23T11:21:55;19.70;;;14.97;;
7377;SDS011;3730;50.856;12.776;2023-02-23T11:24:23;22.70;;;16.13;;
7377;SDS011;3730;50.856;12.776;2023-02-23T11:26:58;18.03;;;14.83;;
7377;SDS011;3730;50.856;12.776;2023-02-23T11:29:37;20.23;;;15.27;;
7377;SDS011;3730;50.856;12.776;2023-02-23T11:32:09;22.00;;;15.73;;
7377;SDS011;3730;50.856;12.776;2023-02-23T11:37:55;19.77;;;16.07;;
7377;SDS011;3730;50.856;12.776;2023-02-23T11:45:54;21.00;;;16.63;;
7377;SDS011;3730;50.856;12.776;2023-02-23T11:48:30;22.00;;;16.27;;
7377;SDS011;3730;50.856;12.776;2023-02-23T11:50:59;19.70;;;15.17;;
7377;SDS011;3730;50.856;12.776;2023-02-23T11:53:30;21.93;;;15.93;;
7377;SDS011;3730;50.856;12.776;2023-02-23T11:56:00;23.43;;;16.27;;
7377;SDS011;3730;50.856;12.776;2023-02-23T12:01:33;20.77;;;15.97;;
7377;SDS011;3730;50.856;12.776;2023-02-23T12:04:01;22.47;;;16.27;;
7377;SDS011;3730;50.856;12.776;2023-02-23T12:06:28;21.60;;;16.63;;
7377;SDS011;3730;50.856;12.776;2023-02-23T12:09:02;21.43;;;16.13;;
7377;SDS011;3730;50.856;12.776;2023-02-23T12:11:30;19.27;;;15.80;;
7377;SDS011;3730;50.856;12.776;2023-02-23T12:14:01;21.97;;;16.77;;
7377;SDS011;3730;50.856;12.776;2023-02-23T12:16:36;19.63;;;15.80;;
7377;SDS011;3730;50.856;12.776;2023-02-23T12:21:52;21.00;;;17.27;;
7377;SDS011;3730;50.856;12.776;2023-02-23T12:26:50;21.20;;;16.67;;
7377;SDS011;3730;50.856;12.776;2023-02-23T12:31:51;21.00;;;16.83;;
7377;SDS011;3730;50.856;12.776;2023-02-23T12:38:07;23.47;;;16.57;;
7377;SDS011;3730;50.856;12.776;2023-02-23T12:42:42;22.20;;;17.17;;
7377;SDS011;3730;50.856;12.776;2023-02-23T12:45:53;23.80;;;17.57;;
7377;SDS011;3730;50.856;12.776;2023-02-23T12:52:53;24.73;;;19.27;;
7377;SDS011;3730;50.856;12.776;2023-02-23T12:55:35;23.57;;;17.87;;
7377;SDS011;3730;50.856;12.776;2023-02-23T12:58:19;26.03;;;19.30;;
7377;SDS011;3730;50.856;12.776;2023-02-23T13:10:58;24.10;;;18.37;;
7377;SDS011;3730;50.856;12.776;2023-02-23T13:19:09;25.07;;;18.77;;
7377;SDS011;3730;50.856;12.776;2023-02-23T13:21:41;21.97;;;17.03;;
7377;SDS011;3730;50.856;12.776;2023-02-23T13:29:46;24.23;;;18.73;;
7377;SDS011;3730;50.856;12.776;2023-02-23T13:32:15;24.90;;;18.57;;
7377;SDS011;3730;50.856;12.776;2023-02-23T13:37:20;24.23;;;19.43;;
7377;SDS011;3730;50.856;12.776;2023-02-23T13:47:46;25.27;;;18.30;;
7377;SDS011;3730;50.856;12.776;2023-02-23T13:50:18;25.23;;;18.00;;
7377;SDS011;3730;50.856;12.776;2023-02-23T13:52:48;27.77;;;18.27;;
7377;SDS011;3730;50.856;12.776;2023-02-23T13:56:02;25.83;;;18.53;;
7377;SDS011;3730;50.856;12.776;2023-02-23T13:58:15;25.63;;;18.37;;
7377;SDS011;3730;50.856;12.776;2023-02-23T14:00:42;24.33;;;17.20;;
7377;SDS011;3730;50.856;12.776;2023-02-23T14:03:19;26.43;;;19.37;;
7377;SDS011;3730;50.856;12.776;2023-02-23T14:05:45;26.90;;;18.53;;
7377;SDS011;3730;50.856;12.776;2023-02-23T14:08:22;24.03;;;17.83;;
7377;SDS011;3730;50.856;12.776;2023-02-23T14:10:51;21.47;;;17.03;;
7377;SDS011;3730;50.856;12.776;2023-02-23T14:15:47;22.80;;;18.20;;
7377;SDS011;3730;50.856;12.776;2023-02-23T14:31:51;24.13;;;17.27;;
7377;SDS011;3730;50.856;12.776;2023-02-23T14:34:50;27.27;;;18.47;;
7377;SDS011;3730;50.856;12.776;2023-02-23T14:37:32;23.50;;;17.67;;
7377;SDS011;3730;50.856;12.776;2023-02-23T14:40:14;23.93;;;17.37;;
7377;SDS011;3730;50.856;12.776;2023-02-23T14:42:45;27.03;;;18.77;;
7377;SDS011;3730;50.856;12.776;2023-02-23T14:47:51;23.97;;;18.63;;
7377;SDS011;3730;50.856;12.776;2023-02-23T14:50:24;50.60;;;40.37;;
7377;SDS011;3730;50.856;12.776;2023-02-23T14:52:55;27.80;;;19.97;;
7377;SDS011;3730;50.856;12.776;2023-02-23T14:55:26;22.67;;;18.13;;
7377;SDS011;3730;50.856;12.776;2023-02-23T14:57:53;25.10;;;19.37;;
7377;SDS011;3730;50.856;12.776;2023-02-23T15:00:21;23.50;;;18.33;;
7377;SDS011;3730;50.856;12.776;2023-02-23T15:05:27;26.20;;;18.73;;
7377;SDS011;3730;50.856;12.776;2023-02-23T15:07:58;25.70;;;19.30;;
7377;SDS011;3730;50.856;12.776;2023-02-23T15:10:36;26.23;;;19.37;;
7377;SDS011;3730;50.856;12.776;2023-02-23T15:13:46;25.43;;;20.00;;
7377;SDS011;3730;50.856;12.776;2023-02-23T15:15:55;26.10;;;20.33;;
7377;SDS011;3730;50.856;12.776;2023-02-23T15:18:24;24.80;;;19.83;;
7377;SDS011;3730;50.856;12.776;2023-02-23T15:21:04;31.70;;;21.80;;
7377;SDS011;3730;50.856;12.776;2023-02-23T15:23:35;35.70;;;24.10;;
7377;SDS011;3730;50.856;12.776;2023-02-23T15:26:14;28.73;;;21.87;;
7377;SDS011;3730;50.856;12.776;2023-02-23T15:29:32;31.37;;;22.13;;
7377;SDS011;3730;50.856;12.776;2023-02-23T15:31:55;29.93;;;22.47;;
7377;SDS011;3730;50.856;12.776;2023-02-23T15:34:38;29.67;;;22.73;;
7377;SDS011;3730;50.856;12.776;2023-02-23T15:37:12;31.10;;;22.67;;
7377;SDS011;3730;50.856;12.776;2023-02-23T15:39:58;31.10;;;23.23;;
7377;SDS011;3730;50.856;12.776;2023-02-23T15:42:38;31.00;;;24.47;;
7377;SDS011;3730;50.856;12.776;2023-02-23T15:47:48;35.00;;;25.67;;
7377;SDS011;3730;50.856;12.776;2023-02-23T15:52:51;31.97;;;25.77;;
7377;SDS011;3730;50.856;12.776;2023-02-23T15:55:36;36.03;;;26.13;;
7377;SDS011;3730;50.856;12.776;2023-02-23T16:00:49;37.33;;;26.63;;
7377;SDS011;3730;50.856;12.776;2023-02-23T16:03:28;36.00;;;26.90;;
7377;SDS011;3730;50.856;12.776;2023-02-23T16:05:58;41.97;;;28.53;;
7377;SDS011;3730;50.856;12.776;2023-02-23T16:08:25;38.53;;;26.97;;
7377;SDS011;3730;50.856;12.776;2023-02-23T16:10:52;40.43;;;29.50;;
7377;SDS011;3730;50.856;12.776;2023-02-23T16:13:21;38.20;;;28.50;;
7377;SDS011;3730;50.856;12.776;2023-02-23T16:15:47;34.53;;;26.03;;
7377;SDS011;3730;50.856;12.776;2023-02-23T16:18:15;35.47;;;26.50;;
7377;SDS011;3730;50.856;12.776;2023-02-23T16:20:52;32.70;;;23.67;;
7377;SDS011;3730;50.856;12.776;2023-02-23T16:23:23;31.33;;;21.87;;
7377;SDS011;3730;50.856;12.776;2023-02-23T16:25:55;26.97;;;20.63;;
7377;SDS011;3730;50.856;12.776;2023-02-23T16:28:29;29.40;;;20.60;;
7377;SDS011;3730;50.856;12.776;2023-02-23T16:31:00;30.83;;;21.40;;
7377;SDS011;3730;50.856;12.776;2023-02-23T16:38:36;32.40;;;22.63;;
7377;SDS011;3730;50.856;12.776;2023-02-23T16:41:04;31.37;;;21.40;;
7377;SDS011;3730;50.856;12.776;2023-02-23T16:43:36;33.93;;;21.97;;
7377;SDS011;3730;50.856;12.776;2023-02-23T16:46:02;30.17;;;22.57;;
7377;SDS011;3730;50.856;12.776;2023-02-23T16:48:27;31.57;;;22.67;;
7377;SDS011;3730;50.856;12.776;2023-02-23T16:50:53;32.50;;;22.47;;
7377;SDS011;3730;50.856;12.776;2023-02-23T16:53:19;32.40;;;24.17;;
7377;SDS011;3730;50.856;12.776;2023-02-23T16:55:48;34.00;;;25.33;;
7377;SDS011;3730;50.856;12.776;2023-02-23T16:58:20;34.70;;;24.73;;
7377;SDS011;3730;50.856;12.776;2023-02-23T17:00:48;33.90;;;25.13;;
7377;SDS011;3730;50.856;12.776;2023-02-23T17:03:20;32.43;;;24.57;;
7377;SDS011;3730;50.856;12.776;2023-02-23T17:05:50;34.13;;;24.97;;
7377;SDS011;3730;50.856;12.776;2023-02-23T17:08:16;34.80;;;26.00;;
7377;SDS011;3730;50.856;12.776;2023-02-23T17:10:43;39.00;;;27.43;;
7377;SDS011;3730;50.856;12.776;2023-02-23T17:13:14;37.73;;;28.83;;
7377;SDS011;3730;50.856;12.776;2023-02-23T17:15:45;41.60;;;30.03;;
7377;SDS011;3730;50.856;12.776;2023-02-23T17:18:14;44.90;;;31.93;;
7377;SDS011;3730;50.856;12.776;2023-02-23T17:20:40;44.27;;;33.13;;
7377;SDS011;3730;50.856;12.776;2023-02-23T17:23:06;42.00;;;29.77;;
7377;SDS011;3730;50.856;12.776;2023-02-23T17:25:31;40.17;;;29.73;;
7377;SDS011;3730;50.856;12.776;2023-02-23T17:27:57;39.17;;;29.40;;
7377;SDS011;3730;50.856;12.776;2023-02-23T17:30:24;37.80;;;25.63;;
7377;SDS011;3730;50.856;12.776;2023-02-23T17:32:50;36.03;;;25.93;;
7377;SDS011;3730;50.856;12.776;2023-02-23T17:35:18;43.53;;;28.13;;
7377;SDS011;3730;50.856;12.776;2023-02-23T17:37:44;44.07;;;29.83;;
7377;SDS011;3730;50.856;12.776;2023-02-23T17:40:12;38.03;;;25.63;;